sensor_id;sensor_type;location;lat;lon;timestamp;temperature;humidity
24664;DHT22;12791;50.992;13.788;2024-01-07T00:01:16;0.60;99.90
24664;DHT22;12791;50.992;13.788;2024-01-07T00:03:44;0.70;99.90
24664;DHT22;12791;50.992;13.788;2024-01-07T00:06:11;1.10;99.90
24664;DHT22;12791;50.992;13.788;2024-01-07T00:08:37;0.80;99.90
24664;DHT22;12791;50.992;13.788;2024-01-07T00:11:04;1.20;99.90
24664;DHT22;12791;50.992;13.788;2024-01-07T00:13:30;0.70;99.90
24664;DHT22;12791;50.992;13.788;2024-01-07T00:15:57;1.10;99.90
24664;DHT22;12791;50.992;13.788;2024-01-07T00:18:23;1.00;99.90
24664;DHT22;12791;50.992;13.788;2024-01-07T00:20:51;0.90;99.90
24664;DHT22;12791;50.992;13.788;2024-01-07T00:23:18;0.40;99.90
24664;DHT22;12791;50.992;13.788;2024-01-07T00:25:45;1.10;99.90
24664;DHT22;12791;50.992;13.788;2024-01-07T00:28:12;0.70;99.90
24664;DHT22;12791;50.992;13.788;2024-01-07T00:30:39;0.80;99.90
24664;DHT22;12791;50.992;13.788;2024-01-07T00:33:05;1.20;99.90
24664;DHT22;12791;50.992;13.788;2024-01-07T00:35:32;1.00;99.90
24664;DHT22;12791;50.992;13.788;2024-01-07T00:38:00;0.80;99.90
24664;DHT22;12791;50.992;13.788;2024-01-07T00:40:27;0.90;99.90
24664;DHT22;12791;50.992;13.788;2024-01-07T00:42:53;0.90;99.90
24664;DHT22;12791;50.992;13.788;2024-01-07T00:45:20;0.80;99.90
24664;DHT22;12791;50.992;13.788;2024-01-07T00:47:47;0.70;99.90
24664;DHT22;12791;50.992;13.788;2024-01-07T00:50:14;0.90;99.90
24664;DHT22;12791;50.992;13.788;2024-01-07T00:52:41;0.70;99.90
24664;DHT22;12791;50.992;13.788;2024-01-07T00:55:09;0.80;99.90
24664;DHT22;12791;50.992;13.788;2024-01-07T00:57:36;0.80;99.90
24664;DHT22;12791;50.992;13.788;2024-01-07T01:00:05;0.50;99.90
24664;DHT22;12791;50.992;13.788;2024-01-07T01:02:32;0.80;99.90
24664;DHT22;12791;50.992;13.788;2024-01-07T01:04:58;0.80;99.90
24664;DHT22;12791;50.992;13.788;2024-01-07T01:07:25;0.90;99.90
24664;DHT22;12791;50.992;13.788;2024-01-07T01:09:51;0.60;99.90
24664;DHT22;12791;50.992;13.788;2024-01-07T01:12:19;1.00;99.90
24664;DHT22;12791;50.992;13.788;2024-01-07T01:14:46;0.40;99.90
24664;DHT22;12791;50.992;13.788;2024-01-07T01:17:12;0.90;99.90
24664;DHT22;12791;50.992;13.788;2024-01-07T01:19:39;1.20;99.90
24664;DHT22;12791;50.992;13.788;2024-01-07T01:22:06;1.10;99.90
24664;DHT22;12791;50.992;13.788;2024-01-07T01:24:33;0.90;99.90
24664;DHT22;12791;50.992;13.788;2024-01-07T01:27:00;0.70;99.90
24664;DHT22;12791;50.992;13.788;2024-01-07T01:29:28;1.40;99.90
24664;DHT22;12791;50.992;13.788;2024-01-07T01:31:54;0.80;99.90
24664;DHT22;12791;50.992;13.788;2024-01-07T01:34:21;0.90;99.90
24664;DHT22;12791;50.992;13.788;2024-01-07T01:36:47;1.10;99.90
24664;DHT22;12791;50.992;13.788;2024-01-07T01:39:14;1.30;99.90
24664;DHT22;12791;50.992;13.788;2024-01-07T01:41:40;0.90;99.90
24664;DHT22;12791;50.992;13.788;2024-01-07T01:44:07;1.10;99.90
24664;DHT22;12791;50.992;13.788;2024-01-07T01:46:35;0.50;99.90
24664;DHT22;12791;50.992;13.788;2024-01-07T01:49:02;1.10;99.90
24664;DHT22;12791;50.992;13.788;2024-01-07T01:51:28;0.90;99.90
24664;DHT22;12791;50.992;13.788;2024-01-07T01:53:55;0.40;99.90
24664;DHT22;12791;50.992;13.788;2024-01-07T01:56:24;0.70;99.90
24664;DHT22;12791;50.992;13.788;2024-01-07T01:58:53;0.70;99.90
24664;DHT22;12791;50.992;13.788;2024-01-07T02:01:20;1.00;99.90
24664;DHT22;12791;50.992;13.788;2024-01-07T02:03:48;0.60;99.90
24664;DHT22;12791;50.992;13.788;2024-01-07T02:06:17;0.30;99.90
24664;DHT22;12791;50.992;13.788;2024-01-07T02:08:43;0.10;99.90
24664;DHT22;12791;50.992;13.788;2024-01-07T02:11:17;0.60;99.90
24664;DHT22;12791;50.992;13.788;2024-01-07T02:13:44;0.40;99.90
24664;DHT22;12791;50.992;13.788;2024-01-07T02:16:11;0.50;99.90
24664;DHT22;12791;50.992;13.788;2024-01-07T02:18:38;0.90;99.90
24664;DHT22;12791;50.992;13.788;2024-01-07T02:21:09;1.00;99.90
24664;DHT22;12791;50.992;13.788;2024-01-07T02:23:36;0.30;99.90
24664;DHT22;12791;50.992;13.788;2024-01-07T02:26:04;0.30;99.90
24664;DHT22;12791;50.992;13.788;2024-01-07T02:28:32;-0.10;99.90
24664;DHT22;12791;50.992;13.788;2024-01-07T02:30:58;0.00;99.90
24664;DHT22;12791;50.992;13.788;2024-01-07T02:33:25;0.70;99.90
24664;DHT22;12791;50.992;13.788;2024-01-07T02:35:51;0.40;99.90
24664;DHT22;12791;50.992;13.788;2024-01-07T02:38:18;0.20;99.90
24664;DHT22;12791;50.992;13.788;2024-01-07T02:40:45;0.40;99.90
24664;DHT22;12791;50.992;13.788;2024-01-07T02:43:12;0.80;99.90
24664;DHT22;12791;50.992;13.788;2024-01-07T02:45:39;0.40;99.90
24664;DHT22;12791;50.992;13.788;2024-01-07T02:48:06;0.50;99.90
24664;DHT22;12791;50.992;13.788;2024-01-07T02:50:32;0.40;99.90
24664;DHT22;12791;50.992;13.788;2024-01-07T02:52:59;0.30;99.90
24664;DHT22;12791;50.992;13.788;2024-01-07T02:55:26;0.40;99.90
24664;DHT22;12791;50.992;13.788;2024-01-07T02:57:52;0.10;99.90
24664;DHT22;12791;50.992;13.788;2024-01-07T03:00:20;0.30;99.90
24664;DHT22;12791;50.992;13.788;2024-01-07T03:02:47;0.40;99.90
24664;DHT22;12791;50.992;13.788;2024-01-07T03:05:14;0.30;99.90
24664;DHT22;12791;50.992;13.788;2024-01-07T03:07:40;0.10;99.90
24664;DHT22;12791;50.992;13.788;2024-01-07T03:10:08;0.20;99.90
24664;DHT22;12791;50.992;13.788;2024-01-07T03:12:34;0.10;99.90
24664;DHT22;12791;50.992;13.788;2024-01-07T03:15:01;0.10;99.90
24664;DHT22;12791;50.992;13.788;2024-01-07T03:17:29;0.30;99.90
24664;DHT22;12791;50.992;13.788;2024-01-07T03:19:55;0.30;99.90
24664;DHT22;12791;50.992;13.788;2024-01-07T03:22:23;0.50;99.90
24664;DHT22;12791;50.992;13.788;2024-01-07T03:24:49;0.40;99.90
24664;DHT22;12791;50.992;13.788;2024-01-07T03:27:16;-0.30;99.90
24664;DHT22;12791;50.992;13.788;2024-01-07T03:29:43;-0.40;99.90
24664;DHT22;12791;50.992;13.788;2024-01-07T03:32:09;0.50;99.90
24664;DHT22;12791;50.992;13.788;2024-01-07T03:34:38;0.40;99.90
24664;DHT22;12791;50.992;13.788;2024-01-07T03:37:05;0.00;99.90
24664;DHT22;12791;50.992;13.788;2024-01-07T03:39:32;-0.10;99.90
24664;DHT22;12791;50.992;13.788;2024-01-07T03:41:59;-0.20;99.90
24664;DHT22;12791;50.992;13.788;2024-01-07T03:44:25;0.30;99.90
24664;DHT22;12791;50.992;13.788;2024-01-07T03:46:52;0.40;99.90
24664;DHT22;12791;50.992;13.788;2024-01-07T03:49:18;0.20;99.90
24664;DHT22;12791;50.992;13.788;2024-01-07T03:51:46;-0.10;99.90
24664;DHT22;12791;50.992;13.788;2024-01-07T03:54:13;0.20;99.90
24664;DHT22;12791;50.992;13.788;2024-01-07T03:56:40;0.30;99.90
24664;DHT22;12791;50.992;13.788;2024-01-07T03:59:06;0.30;99.90
24664;DHT22;12791;50.992;13.788;2024-01-07T04:01:33;0.50;99.90
24664;DHT22;12791;50.992;13.788;2024-01-07T04:04:00;0.20;99.90
24664;DHT22;12791;50.992;13.788;2024-01-07T04:06:26;0.50;99.90
24664;DHT22;12791;50.992;13.788;2024-01-07T04:08:54;0.50;99.90
24664;DHT22;12791;50.992;13.788;2024-01-07T04:11:21;-0.40;99.90
24664;DHT22;12791;50.992;13.788;2024-01-07T04:13:47;0.10;99.90
24664;DHT22;12791;50.992;13.788;2024-01-07T04:16:17;0.60;99.90
24664;DHT22;12791;50.992;13.788;2024-01-07T04:18:44;0.10;99.90
24664;DHT22;12791;50.992;13.788;2024-01-07T04:21:11;-0.30;99.90
24664;DHT22;12791;50.992;13.788;2024-01-07T04:23:38;0.10;99.90
24664;DHT22;12791;50.992;13.788;2024-01-07T04:26:07;-0.50;99.90
24664;DHT22;12791;50.992;13.788;2024-01-07T04:28:34;-0.30;99.90
24664;DHT22;12791;50.992;13.788;2024-01-07T04:31:00;0.50;99.90
24664;DHT22;12791;50.992;13.788;2024-01-07T04:33:27;0.20;99.90
24664;DHT22;12791;50.992;13.788;2024-01-07T04:35:53;0.20;99.90
24664;DHT22;12791;50.992;13.788;2024-01-07T04:38:23;-0.40;99.90
24664;DHT22;12791;50.992;13.788;2024-01-07T04:40:50;0.00;99.90
24664;DHT22;12791;50.992;13.788;2024-01-07T04:43:18;-0.10;99.90
24664;DHT22;12791;50.992;13.788;2024-01-07T04:45:44;0.20;99.90
24664;DHT22;12791;50.992;13.788;2024-01-07T04:48:11;-0.40;99.90
24664;DHT22;12791;50.992;13.788;2024-01-07T04:50:39;0.10;99.90
24664;DHT22;12791;50.992;13.788;2024-01-07T04:53:06;-0.10;99.90
24664;DHT22;12791;50.992;13.788;2024-01-07T04:55:32;-0.50;99.90
24664;DHT22;12791;50.992;13.788;2024-01-07T04:57:59;0.20;99.90
24664;DHT22;12791;50.992;13.788;2024-01-07T05:00:28;-0.20;99.90
24664;DHT22;12791;50.992;13.788;2024-01-07T05:02:54;0.40;99.90
24664;DHT22;12791;50.992;13.788;2024-01-07T05:05:21;0.20;99.90
24664;DHT22;12791;50.992;13.788;2024-01-07T05:07:48;0.20;99.90
24664;DHT22;12791;50.992;13.788;2024-01-07T05:10:15;-0.40;99.90
24664;DHT22;12791;50.992;13.788;2024-01-07T05:12:41;0.00;99.90
24664;DHT22;12791;50.992;13.788;2024-01-07T05:15:08;-0.40;99.90
24664;DHT22;12791;50.992;13.788;2024-01-07T05:17:37;0.30;99.90
24664;DHT22;12791;50.992;13.788;2024-01-07T05:20:04;0.10;99.90
24664;DHT22;12791;50.992;13.788;2024-01-07T05:22:32;0.00;99.90
24664;DHT22;12791;50.992;13.788;2024-01-07T05:24:58;0.10;99.90
24664;DHT22;12791;50.992;13.788;2024-01-07T05:27:25;0.00;99.90
24664;DHT22;12791;50.992;13.788;2024-01-07T05:29:51;0.30;99.90
24664;DHT22;12791;50.992;13.788;2024-01-07T05:32:20;0.10;99.90
24664;DHT22;12791;50.992;13.788;2024-01-07T05:34:48;0.10;99.90
24664;DHT22;12791;50.992;13.788;2024-01-07T05:37:15;0.00;99.90
24664;DHT22;12791;50.992;13.788;2024-01-07T05:39:42;0.00;99.90
24664;DHT22;12791;50.992;13.788;2024-01-07T05:42:09;0.10;99.90
24664;DHT22;12791;50.992;13.788;2024-01-07T05:44:35;0.10;99.90
24664;DHT22;12791;50.992;13.788;2024-01-07T05:47:02;-0.40;99.90
24664;DHT22;12791;50.992;13.788;2024-01-07T05:49:29;0.00;99.90
24664;DHT22;12791;50.992;13.788;2024-01-07T05:51:57;-0.30;99.90
24664;DHT22;12791;50.992;13.788;2024-01-07T05:54:24;-0.30;99.90
24664;DHT22;12791;50.992;13.788;2024-01-07T05:56:51;-0.10;99.90
24664;DHT22;12791;50.992;13.788;2024-01-07T05:59:17;0.30;99.90
24664;DHT22;12791;50.992;13.788;2024-01-07T06:01:45;-0.30;99.90
24664;DHT22;12791;50.992;13.788;2024-01-07T06:04:11;0.30;99.90
24664;DHT22;12791;50.992;13.788;2024-01-07T06:06:38;-0.60;99.90
24664;DHT22;12791;50.992;13.788;2024-01-07T06:09:06;-0.20;99.90
24664;DHT22;12791;50.992;13.788;2024-01-07T06:11:33;-0.30;99.90
24664;DHT22;12791;50.992;13.788;2024-01-07T06:13:59;0.10;99.90
24664;DHT22;12791;50.992;13.788;2024-01-07T06:16:26;-0.60;99.90
24664;DHT22;12791;50.992;13.788;2024-01-07T06:18:52;-0.90;99.90
24664;DHT22;12791;50.992;13.788;2024-01-07T06:21:19;-0.80;99.90
24664;DHT22;12791;50.992;13.788;2024-01-07T06:23:46;-0.50;99.90
24664;DHT22;12791;50.992;13.788;2024-01-07T06:26:15;-0.40;99.90
24664;DHT22;12791;50.992;13.788;2024-01-07T06:28:41;-0.40;99.90
24664;DHT22;12791;50.992;13.788;2024-01-07T06:31:08;-0.90;99.90
24664;DHT22;12791;50.992;13.788;2024-01-07T06:33:35;-0.50;99.90
24664;DHT22;12791;50.992;13.788;2024-01-07T06:36:01;-0.80;99.90
24664;DHT22;12791;50.992;13.788;2024-01-07T06:38:28;-0.80;99.90
24664;DHT22;12791;50.992;13.788;2024-01-07T06:40:54;-0.30;99.90
24664;DHT22;12791;50.992;13.788;2024-01-07T06:43:27;-0.90;99.90
24664;DHT22;12791;50.992;13.788;2024-01-07T06:45:53;-0.80;99.90
24664;DHT22;12791;50.992;13.788;2024-01-07T06:48:20;0.00;99.90
24664;DHT22;12791;50.992;13.788;2024-01-07T06:50:46;-0.20;99.90
24664;DHT22;12791;50.992;13.788;2024-01-07T06:53:13;0.10;99.90
24664;DHT22;12791;50.992;13.788;2024-01-07T06:55:40;-0.50;99.90
24664;DHT22;12791;50.992;13.788;2024-01-07T06:58:07;-0.30;99.90
24664;DHT22;12791;50.992;13.788;2024-01-07T07:00:35;-0.10;99.90
24664;DHT22;12791;50.992;13.788;2024-01-07T07:03:01;-0.50;99.90
24664;DHT22;12791;50.992;13.788;2024-01-07T07:05:28;-0.30;99.90
24664;DHT22;12791;50.992;13.788;2024-01-07T07:07:54;-0.30;99.90
24664;DHT22;12791;50.992;13.788;2024-01-07T07:10:21;-1.10;99.90
24664;DHT22;12791;50.992;13.788;2024-01-07T07:12:48;-0.60;99.90
24664;DHT22;12791;50.992;13.788;2024-01-07T07:15:16;-0.60;99.90
24664;DHT22;12791;50.992;13.788;2024-01-07T07:17:44;-0.70;99.90
24664;DHT22;12791;50.992;13.788;2024-01-07T07:20:11;-0.30;99.90
24664;DHT22;12791;50.992;13.788;2024-01-07T07:22:38;-1.00;99.90
24664;DHT22;12791;50.992;13.788;2024-01-07T07:25:05;-0.50;99.90
24664;DHT22;12791;50.992;13.788;2024-01-07T07:27:32;-0.50;99.90
24664;DHT22;12791;50.992;13.788;2024-01-07T07:29:59;-0.80;99.90
24664;DHT22;12791;50.992;13.788;2024-01-07T07:32:25;-0.50;99.90
24664;DHT22;12791;50.992;13.788;2024-01-07T07:34:53;-0.70;99.90
24664;DHT22;12791;50.992;13.788;2024-01-07T07:37:20;-0.70;99.90
24664;DHT22;12791;50.992;13.788;2024-01-07T07:39:47;-0.50;99.90
24664;DHT22;12791;50.992;13.788;2024-01-07T07:42:14;-0.10;99.90
24664;DHT22;12791;50.992;13.788;2024-01-07T07:44:41;-1.20;99.90
24664;DHT22;12791;50.992;13.788;2024-01-07T07:47:08;-1.20;99.90
24664;DHT22;12791;50.992;13.788;2024-01-07T07:49:37;-1.10;99.90
24664;DHT22;12791;50.992;13.788;2024-01-07T07:52:06;-0.70;99.90
24664;DHT22;12791;50.992;13.788;2024-01-07T07:54:33;-0.70;99.90
24664;DHT22;12791;50.992;13.788;2024-01-07T07:57:00;-0.60;99.90
24664;DHT22;12791;50.992;13.788;2024-01-07T07:59:27;-0.50;99.90
24664;DHT22;12791;50.992;13.788;2024-01-07T08:01:54;-0.50;99.90
24664;DHT22;12791;50.992;13.788;2024-01-07T08:04:21;-0.60;99.90
24664;DHT22;12791;50.992;13.788;2024-01-07T08:06:47;-0.30;99.90
24664;DHT22;12791;50.992;13.788;2024-01-07T08:09:15;-0.40;99.90
24664;DHT22;12791;50.992;13.788;2024-01-07T08:11:42;-0.70;99.90
24664;DHT22;12791;50.992;13.788;2024-01-07T08:14:08;-0.70;99.90
24664;DHT22;12791;50.992;13.788;2024-01-07T08:16:35;-0.80;99.90
24664;DHT22;12791;50.992;13.788;2024-01-07T08:19:01;-1.30;99.90
24664;DHT22;12791;50.992;13.788;2024-01-07T08:21:28;-0.70;99.90
24664;DHT22;12791;50.992;13.788;2024-01-07T08:23:54;-0.60;99.90
24664;DHT22;12791;50.992;13.788;2024-01-07T08:26:22;-1.30;99.90
24664;DHT22;12791;50.992;13.788;2024-01-07T08:28:49;-1.30;99.90
24664;DHT22;12791;50.992;13.788;2024-01-07T08:31:16;-0.70;99.90
24664;DHT22;12791;50.992;13.788;2024-01-07T08:33:42;-1.30;99.90
24664;DHT22;12791;50.992;13.788;2024-01-07T08:36:09;-0.30;99.90
24664;DHT22;12791;50.992;13.788;2024-01-07T08:38:35;-1.00;99.90
24664;DHT22;12791;50.992;13.788;2024-01-07T08:41:02;-0.70;99.90
24664;DHT22;12791;50.992;13.788;2024-01-07T08:43:31;-0.40;99.90
24664;DHT22;12791;50.992;13.788;2024-01-07T08:45:57;-0.30;99.90
24664;DHT22;12791;50.992;13.788;2024-01-07T08:48:24;-0.70;99.90
24664;DHT22;12791;50.992;13.788;2024-01-07T08:50:50;-0.80;99.90
24664;DHT22;12791;50.992;13.788;2024-01-07T08:53:17;-0.20;99.90
24664;DHT22;12791;50.992;13.788;2024-01-07T08:55:44;-0.50;99.90
24664;DHT22;12791;50.992;13.788;2024-01-07T08:58:11;-0.90;99.90
24664;DHT22;12791;50.992;13.788;2024-01-07T09:00:41;-0.30;99.90
24664;DHT22;12791;50.992;13.788;2024-01-07T09:03:07;-1.00;99.90
24664;DHT22;12791;50.992;13.788;2024-01-07T09:05:34;-0.70;99.90
24664;DHT22;12791;50.992;13.788;2024-01-07T09:08:00;-0.40;99.90
24664;DHT22;12791;50.992;13.788;2024-01-07T09:10:27;-0.60;99.90
24664;DHT22;12791;50.992;13.788;2024-01-07T09:12:54;-0.70;99.90
24664;DHT22;12791;50.992;13.788;2024-01-07T09:15:21;-0.20;99.90
24664;DHT22;12791;50.992;13.788;2024-01-07T09:17:48;-1.20;99.90
24664;DHT22;12791;50.992;13.788;2024-01-07T09:20:15;-0.60;99.90
24664;DHT22;12791;50.992;13.788;2024-01-07T09:22:42;-0.80;99.90
24664;DHT22;12791;50.992;13.788;2024-01-07T09:25:09;-0.40;99.90
24664;DHT22;12791;50.992;13.788;2024-01-07T09:27:36;-0.80;99.90
24664;DHT22;12791;50.992;13.788;2024-01-07T09:30:03;-1.20;99.90
24664;DHT22;12791;50.992;13.788;2024-01-07T09:32:30;-0.50;99.90
24664;DHT22;12791;50.992;13.788;2024-01-07T09:34:58;-0.30;99.90
24664;DHT22;12791;50.992;13.788;2024-01-07T09:37:24;-1.00;99.90
24664;DHT22;12791;50.992;13.788;2024-01-07T09:39:51;-0.90;99.90
24664;DHT22;12791;50.992;13.788;2024-01-07T09:42:18;-0.70;99.90
24664;DHT22;12791;50.992;13.788;2024-01-07T09:44:45;-0.50;99.30
24664;DHT22;12791;50.992;13.788;2024-01-07T09:47:14;-0.60;99.10
24664;DHT22;12791;50.992;13.788;2024-01-07T09:49:41;-1.00;99.00
24664;DHT22;12791;50.992;13.788;2024-01-07T09:52:10;-0.50;99.20
24664;DHT22;12791;50.992;13.788;2024-01-07T09:54:38;-0.60;99.10
24664;DHT22;12791;50.992;13.788;2024-01-07T09:57:07;-0.70;99.30
24664;DHT22;12791;50.992;13.788;2024-01-07T09:59:34;-0.60;99.30
24664;DHT22;12791;50.992;13.788;2024-01-07T10:02:02;-1.10;98.50
24664;DHT22;12791;50.992;13.788;2024-01-07T10:04:29;-1.10;98.40
24664;DHT22;12791;50.992;13.788;2024-01-07T10:06:57;-0.50;98.20
24664;DHT22;12791;50.992;13.788;2024-01-07T10:09:28;-0.40;97.90
24664;DHT22;12791;50.992;13.788;2024-01-07T10:11:55;-0.70;98.60
24664;DHT22;12791;50.992;13.788;2024-01-07T10:14:22;-1.30;97.10
24664;DHT22;12791;50.992;13.788;2024-01-07T10:16:50;-0.90;97.80
24664;DHT22;12791;50.992;13.788;2024-01-07T10:19:23;-0.90;97.70
24664;DHT22;12791;50.992;13.788;2024-01-07T10:21:59;-0.90;97.20
24664;DHT22;12791;50.992;13.788;2024-01-07T10:24:35;-0.60;97.20
24664;DHT22;12791;50.992;13.788;2024-01-07T10:27:04;-0.80;97.00
24664;DHT22;12791;50.992;13.788;2024-01-07T10:29:30;-0.80;96.90
24664;DHT22;12791;50.992;13.788;2024-01-07T10:31:57;-1.00;98.00
24664;DHT22;12791;50.992;13.788;2024-01-07T10:34:25;-0.60;98.00
24664;DHT22;12791;50.992;13.788;2024-01-07T10:36:53;-0.60;97.90
24664;DHT22;12791;50.992;13.788;2024-01-07T10:39:21;-0.90;99.00
24664;DHT22;12791;50.992;13.788;2024-01-07T10:41:50;-0.90;97.80
24664;DHT22;12791;50.992;13.788;2024-01-07T10:44:19;-1.20;98.10
24664;DHT22;12791;50.992;13.788;2024-01-07T10:46:46;-1.00;97.20
24664;DHT22;12791;50.992;13.788;2024-01-07T10:49:19;-0.90;97.30
24664;DHT22;12791;50.992;13.788;2024-01-07T10:51:51;-1.20;96.40
24664;DHT22;12791;50.992;13.788;2024-01-07T10:54:24;-1.30;96.80
24664;DHT22;12791;50.992;13.788;2024-01-07T10:56:58;-1.60;97.40
24664;DHT22;12791;50.992;13.788;2024-01-07T10:59:26;-1.10;97.20
24664;DHT22;12791;50.992;13.788;2024-01-07T11:01:53;-1.30;94.90
24664;DHT22;12791;50.992;13.788;2024-01-07T11:04:23;-0.60;95.30
24664;DHT22;12791;50.992;13.788;2024-01-07T11:06:55;-0.90;94.50
24664;DHT22;12791;50.992;13.788;2024-01-07T11:09:28;-1.50;93.30
24664;DHT22;12791;50.992;13.788;2024-01-07T11:12:00;-0.80;93.80
24664;DHT22;12791;50.992;13.788;2024-01-07T11:14:34;-0.70;93.20
24664;DHT22;12791;50.992;13.788;2024-01-07T11:17:01;-1.10;93.90
24664;DHT22;12791;50.992;13.788;2024-01-07T11:19:28;-1.60;93.20
24664;DHT22;12791;50.992;13.788;2024-01-07T11:22:23;-0.70;93.50
24664;DHT22;12791;50.992;13.788;2024-01-07T11:24:53;-1.00;93.20
24664;DHT22;12791;50.992;13.788;2024-01-07T11:27:23;-1.00;90.70
24664;DHT22;12791;50.992;13.788;2024-01-07T11:29:54;-1.10;90.70
24664;DHT22;12791;50.992;13.788;2024-01-07T11:32:22;-1.60;89.90
24664;DHT22;12791;50.992;13.788;2024-01-07T11:34:50;-1.60;90.00
24664;DHT22;12791;50.992;13.788;2024-01-07T11:37:19;-1.30;90.50
24664;DHT22;12791;50.992;13.788;2024-01-07T11:39:46;-1.20;89.80
24664;DHT22;12791;50.992;13.788;2024-01-07T11:42:13;-0.90;87.10
24664;DHT22;12791;50.992;13.788;2024-01-07T11:44:47;-1.10;85.20
24664;DHT22;12791;50.992;13.788;2024-01-07T11:47:14;-1.10;86.30
24664;DHT22;12791;50.992;13.788;2024-01-07T11:49:41;-0.60;85.60
24664;DHT22;12791;50.992;13.788;2024-01-07T11:52:08;-1.10;85.50
24664;DHT22;12791;50.992;13.788;2024-01-07T11:54:36;-1.10;82.00
24664;DHT22;12791;50.992;13.788;2024-01-07T11:57:03;-0.90;82.00
24664;DHT22;12791;50.992;13.788;2024-01-07T11:59:30;-1.00;79.30
24664;DHT22;12791;50.992;13.788;2024-01-07T12:01:59;-1.10;79.20
24664;DHT22;12791;50.992;13.788;2024-01-07T12:04:26;-1.00;80.30
24664;DHT22;12791;50.992;13.788;2024-01-07T12:06:53;-1.10;79.70
24664;DHT22;12791;50.992;13.788;2024-01-07T12:09:20;-0.90;80.10
24664;DHT22;12791;50.992;13.788;2024-01-07T12:11:46;-1.00;80.70
24664;DHT22;12791;50.992;13.788;2024-01-07T12:14:14;-0.80;80.60
24664;DHT22;12791;50.992;13.788;2024-01-07T12:16:41;-1.20;80.80
24664;DHT22;12791;50.992;13.788;2024-01-07T12:19:10;-0.60;80.80
24664;DHT22;12791;50.992;13.788;2024-01-07T12:21:36;-0.90;78.60
24664;DHT22;12791;50.992;13.788;2024-01-07T12:24:04;-0.80;79.80
24664;DHT22;12791;50.992;13.788;2024-01-07T12:26:31;-0.80;79.00
24664;DHT22;12791;50.992;13.788;2024-01-07T12:28:59;-1.20;76.90
24664;DHT22;12791;50.992;13.788;2024-01-07T12:31:29;-1.00;78.20
24664;DHT22;12791;50.992;13.788;2024-01-07T12:33:56;-1.20;78.20
24664;DHT22;12791;50.992;13.788;2024-01-07T12:36:24;-0.90;78.10
24664;DHT22;12791;50.992;13.788;2024-01-07T12:38:52;-1.20;78.60
24664;DHT22;12791;50.992;13.788;2024-01-07T12:41:19;-0.70;78.60
24664;DHT22;12791;50.992;13.788;2024-01-07T12:43:47;-0.80;79.20
24664;DHT22;12791;50.992;13.788;2024-01-07T12:46:14;-1.10;78.80
24664;DHT22;12791;50.992;13.788;2024-01-07T12:48:40;-0.80;78.70
24664;DHT22;12791;50.992;13.788;2024-01-07T12:51:07;-1.20;78.70
24664;DHT22;12791;50.992;13.788;2024-01-07T12:53:35;-0.70;79.70
24664;DHT22;12791;50.992;13.788;2024-01-07T12:56:02;-1.10;79.00
24664;DHT22;12791;50.992;13.788;2024-01-07T12:58:28;-1.20;78.80
24664;DHT22;12791;50.992;13.788;2024-01-07T13:00:55;-1.10;79.20
24664;DHT22;12791;50.992;13.788;2024-01-07T13:03:22;-1.10;78.80
24664;DHT22;12791;50.992;13.788;2024-01-07T13:05:50;-0.90;80.10
24664;DHT22;12791;50.992;13.788;2024-01-07T13:08:17;-1.30;79.60
24664;DHT22;12791;50.992;13.788;2024-01-07T13:10:46;-1.30;77.40
24664;DHT22;12791;50.992;13.788;2024-01-07T13:13:13;-0.80;78.90
24664;DHT22;12791;50.992;13.788;2024-01-07T13:15:40;-1.10;78.80
24664;DHT22;12791;50.992;13.788;2024-01-07T13:18:08;-1.20;79.10
24664;DHT22;12791;50.992;13.788;2024-01-07T13:20:37;-1.40;79.00
24664;DHT22;12791;50.992;13.788;2024-01-07T13:23:05;-1.80;79.90
24664;DHT22;12791;50.992;13.788;2024-01-07T13:25:32;-1.40;80.10
24664;DHT22;12791;50.992;13.788;2024-01-07T13:28:00;-1.90;79.60
24664;DHT22;12791;50.992;13.788;2024-01-07T13:30:26;-1.70;79.10
24664;DHT22;12791;50.992;13.788;2024-01-07T13:32:53;-1.30;79.40
24664;DHT22;12791;50.992;13.788;2024-01-07T13:35:22;-1.30;79.10
24664;DHT22;12791;50.992;13.788;2024-01-07T13:37:48;-0.90;80.30
24664;DHT22;12791;50.992;13.788;2024-01-07T13:40:17;-1.30;80.00
24664;DHT22;12791;50.992;13.788;2024-01-07T13:42:44;-1.20;80.80
24664;DHT22;12791;50.992;13.788;2024-01-07T13:45:17;-1.30;79.50
24664;DHT22;12791;50.992;13.788;2024-01-07T13:47:45;-1.80;79.40
24664;DHT22;12791;50.992;13.788;2024-01-07T13:50:12;-1.00;80.40
24664;DHT22;12791;50.992;13.788;2024-01-07T13:52:39;-1.20;80.00
24664;DHT22;12791;50.992;13.788;2024-01-07T13:55:07;-1.10;79.50
24664;DHT22;12791;50.992;13.788;2024-01-07T13:57:35;-1.10;78.70
24664;DHT22;12791;50.992;13.788;2024-01-07T14:00:02;-1.60;77.70
24664;DHT22;12791;50.992;13.788;2024-01-07T14:02:34;-0.90;79.10
24664;DHT22;12791;50.992;13.788;2024-01-07T14:05:03;-1.00;79.30
24664;DHT22;12791;50.992;13.788;2024-01-07T14:07:31;-1.10;79.40
24664;DHT22;12791;50.992;13.788;2024-01-07T14:09:59;-0.60;79.90
24664;DHT22;12791;50.992;13.788;2024-01-07T14:12:28;-0.80;78.90
24664;DHT22;12791;50.992;13.788;2024-01-07T14:14:54;-0.90;78.90
24664;DHT22;12791;50.992;13.788;2024-01-07T14:17:21;-0.80;78.90
24664;DHT22;12791;50.992;13.788;2024-01-07T14:19:49;-1.30;78.30
24664;DHT22;12791;50.992;13.788;2024-01-07T14:22:17;-1.40;77.00
24664;DHT22;12791;50.992;13.788;2024-01-07T14:24:44;-1.40;77.30
24664;DHT22;12791;50.992;13.788;2024-01-07T14:27:12;-1.10;77.10
24664;DHT22;12791;50.992;13.788;2024-01-07T14:29:39;-1.00;77.80
24664;DHT22;12791;50.992;13.788;2024-01-07T14:32:06;-1.20;77.60
24664;DHT22;12791;50.992;13.788;2024-01-07T14:34:33;-0.80;79.20
24664;DHT22;12791;50.992;13.788;2024-01-07T14:37:02;-0.90;79.60
24664;DHT22;12791;50.992;13.788;2024-01-07T14:39:29;-1.00;79.60
24664;DHT22;12791;50.992;13.788;2024-01-07T14:41:56;-0.80;80.80
24664;DHT22;12791;50.992;13.788;2024-01-07T14:44:23;-0.90;78.90
24664;DHT22;12791;50.992;13.788;2024-01-07T14:46:49;-0.50;78.10
24664;DHT22;12791;50.992;13.788;2024-01-07T14:49:16;-1.00;78.10
24664;DHT22;12791;50.992;13.788;2024-01-07T14:51:42;-0.80;78.30
24664;DHT22;12791;50.992;13.788;2024-01-07T14:54:10;-1.50;77.90
24664;DHT22;12791;50.992;13.788;2024-01-07T14:56:37;-1.10;78.40
24664;DHT22;12791;50.992;13.788;2024-01-07T14:59:04;-0.90;79.20
24664;DHT22;12791;50.992;13.788;2024-01-07T15:01:30;-1.10;78.10
24664;DHT22;12791;50.992;13.788;2024-01-07T15:03:57;-1.10;78.20
24664;DHT22;12791;50.992;13.788;2024-01-07T15:06:24;-1.00;78.70
24664;DHT22;12791;50.992;13.788;2024-01-07T15:08:51;-1.00;76.50
24664;DHT22;12791;50.992;13.788;2024-01-07T15:11:21;-1.10;77.70
24664;DHT22;12791;50.992;13.788;2024-01-07T15:13:47;-1.50;78.60
24664;DHT22;12791;50.992;13.788;2024-01-07T15:16:14;-0.50;78.90
24664;DHT22;12791;50.992;13.788;2024-01-07T15:18:41;-1.20;78.00
24664;DHT22;12791;50.992;13.788;2024-01-07T15:21:07;-1.30;77.50